createdAt,value
2023-01-25T00:02:03.201Z,3.26
2023-01-25T00:04:32.039Z,3.21
2023-01-25T00:07:01.135Z,3.21
2023-01-25T00:09:30.235Z,3.09
2023-01-25T00:11:59.291Z,3.03
2023-01-25T00:14:29.799Z,3.17
2023-01-25T00:16:58.745Z,3.16
2023-01-25T00:19:27.918Z,3.47
2023-01-25T00:21:57.004Z,3.16
2023-01-25T00:24:26.404Z,3.30
2023-01-25T00:26:55.617Z,3.33
2023-01-25T00:29:24.659Z,2.83
2023-01-25T00:32:04.944Z,2.82
2023-01-25T00:34:44.576Z,2.51
2023-01-25T00:37:30.123Z,2.59
2023-01-25T00:39:59.889Z,2.76
2023-01-25T00:42:29.577Z,2.45
2023-01-25T00:44:58.582Z,2.66
2023-01-25T00:47:29.090Z,3.05
2023-01-25T00:49:57.796Z,2.66
2023-01-25T00:52:28.738Z,2.62
2023-01-25T00:54:58.387Z,2.11
2023-01-25T00:57:27.453Z,2.72
2023-01-25T00:59:56.745Z,2.42
2023-01-25T01:02:25.825Z,2.42
2023-01-25T01:04:56.929Z,2.37
2023-01-25T01:07:26.067Z,2.50
2023-01-25T01:09:55.475Z,2.20
2023-01-25T01:12:27.035Z,2.59
2023-01-25T01:14:56.743Z,2.18
2023-01-25T01:17:25.967Z,2.29
2023-01-25T01:19:54.758Z,1.94
2023-01-25T01:22:27.626Z,2.19
2023-01-25T01:24:56.781Z,2.03
2023-01-25T01:27:25.731Z,1.85
2023-01-25T01:29:54.763Z,2.29
2023-01-25T01:32:23.988Z,2.59
2023-01-25T01:34:53.687Z,2.57
2023-01-25T01:37:22.740Z,2.36
2023-01-25T01:39:53.627Z,2.67
2023-01-25T01:42:22.824Z,2.67
2023-01-25T01:44:54.028Z,2.87
2023-01-25T01:47:27.977Z,2.77
2023-01-25T01:50:03.167Z,2.59
2023-01-25T01:52:36.836Z,2.72
2023-01-25T01:55:09.997Z,2.50
2023-01-25T01:57:43.062Z,2.23
2023-01-25T02:00:16.271Z,2.10
2023-01-25T02:02:47.160Z,2.42
2023-01-25T02:05:20.836Z,2.35
2023-01-25T02:07:51.372Z,2.51
2023-01-25T02:10:24.045Z,2.58
2023-01-25T02:12:54.640Z,2.23
2023-01-25T02:15:23.814Z,1.98
2023-01-25T02:17:53.483Z,1.59
2023-01-25T02:20:29.838Z,1.94
2023-01-25T02:23:03.589Z,1.59
2023-01-25T02:25:34.343Z,1.52
2023-01-25T02:28:07.898Z,2.03
2023-01-25T02:30:37.199Z,1.53
2023-01-25T02:33:06.306Z,1.31
2023-01-25T02:35:40.394Z,1.82
2023-01-25T02:38:11.550Z,1.94
2023-01-25T02:40:46.462Z,1.87
2023-01-25T02:43:16.689Z,1.03
2023-01-25T02:45:49.155Z,1.26
2023-01-25T02:48:18.239Z,1.13
2023-01-25T02:50:47.393Z,1.51
2023-01-25T02:53:16.399Z,1.75
2023-01-25T02:55:46.628Z,1.81
2023-01-25T02:58:15.720Z,1.65
2023-01-25T03:00:44.824Z,1.87
2023-01-25T03:03:13.993Z,2.00
2023-01-25T03:05:43.386Z,1.88
2023-01-25T03:08:13.130Z,1.96
2023-01-25T03:10:42.595Z,1.77
2023-01-25T03:13:13.188Z,1.74
2023-01-25T03:15:42.271Z,1.60
2023-01-25T03:18:11.623Z,1.71
2023-01-25T03:20:40.670Z,1.65
2023-01-25T03:23:10.182Z,1.58
2023-01-25T03:25:39.994Z,1.70
2023-01-25T03:28:15.954Z,1.39
2023-01-25T03:30:45.231Z,1.18
2023-01-25T03:33:14.330Z,1.22
2023-01-25T03:35:43.404Z,0.74
2023-01-25T03:38:12.641Z,1.16
2023-01-25T03:40:41.428Z,0.64
2023-01-25T03:43:10.629Z,0.15
2023-01-25T03:45:41.355Z,0.72
2023-01-25T03:48:10.552Z,0.85
2023-01-25T03:50:40.846Z,0.75
2023-01-25T03:53:20.371Z,0.36
2023-01-25T03:55:50.372Z,0.70
2023-01-25T03:58:20.001Z,0.44
2023-01-25T04:00:50.758Z,0.07
2023-01-25T04:03:21.711Z,0.65
2023-01-25T04:05:51.279Z,0.99
2023-01-25T04:08:20.773Z,0.62
2023-01-25T04:10:53.801Z,0.85
2023-01-25T04:13:23.861Z,0.99
2023-01-25T04:15:55.448Z,1.22
2023-01-25T04:18:44.505Z,1.12
2023-01-25T04:21:13.681Z,1.16
2023-01-25T04:23:42.900Z,0.60
2023-01-25T04:26:12.730Z,0.57
2023-01-25T04:28:42.981Z,0.69
2023-01-25T04:31:13.466Z,0.52
2023-01-25T04:33:43.306Z,0.45
2023-01-25T04:36:13.096Z,0.62
2023-01-25T04:38:43.214Z,0.35
2023-01-25T04:41:13.161Z,0.34
2023-01-25T04:43:43.564Z,0.53
2023-01-25T04:46:14.729Z,0.27
2023-01-25T04:48:44.004Z,0.86
2023-01-25T04:51:14.469Z,0.98
2023-01-25T04:53:44.017Z,0.72
2023-01-25T04:56:13.353Z,1.00
2023-01-25T04:58:48.611Z,0.81
2023-01-25T05:01:19.419Z,1.07
2023-01-25T05:03:54.780Z,1.17
2023-01-25T05:06:37.136Z,1.24
2023-01-25T05:09:06.366Z,1.23
2023-01-25T05:11:37.303Z,1.16
2023-01-25T05:14:13.376Z,1.30
2023-01-25T05:16:45.722Z,1.32
2023-01-25T05:19:16.214Z,1.28
2023-01-25T05:21:59.649Z,1.31
2023-01-25T05:24:37.167Z,1.29
2023-01-25T05:27:09.147Z,1.41
2023-01-25T05:29:58.875Z,1.14
2023-01-25T05:32:50.425Z,1.20
2023-01-25T05:35:20.082Z,0.82
2023-01-25T05:37:51.251Z,1.09
2023-01-25T05:40:25.230Z,1.26
2023-01-25T05:42:57.770Z,1.26
2023-01-25T05:45:30.171Z,1.14
2023-01-25T05:48:01.627Z,1.29
2023-01-25T05:50:31.926Z,0.92
2023-01-25T05:53:13.030Z,0.82
2023-01-25T05:55:41.912Z,1.11
2023-01-25T05:58:17.847Z,1.28
2023-01-25T06:00:47.259Z,1.19
2023-01-25T06:03:28.944Z,1.02
2023-01-25T06:05:58.468Z,1.14
2023-01-25T06:08:27.708Z,1.10
2023-01-25T06:10:56.458Z,1.12
2023-01-25T06:13:25.928Z,0.68
2023-01-25T06:15:56.291Z,0.78
2023-01-25T06:18:53.060Z,0.65
2023-01-25T06:21:48.554Z,0.64
2023-01-25T06:24:17.715Z,0.73
2023-01-25T06:26:47.114Z,0.64
2023-01-25T06:29:16.598Z,0.78
2023-01-25T06:31:45.346Z,0.63
2023-01-25T06:34:17.221Z,0.72
2023-01-25T06:36:46.699Z,0.80
2023-01-25T06:39:16.151Z,1.02
2023-01-25T06:41:45.429Z,0.39
2023-01-25T06:44:14.612Z,0.74
2023-01-25T06:46:43.611Z,0.42
2023-01-25T06:49:12.892Z,0.53
2023-01-25T06:51:44.773Z,0.51
2023-01-25T06:54:13.912Z,0.36
2023-01-25T06:56:43.614Z,0.04
2023-01-25T06:59:12.864Z,-0.51
2023-01-25T07:01:41.635Z,0.21
2023-01-25T07:04:12.231Z,0.44
2023-01-25T07:06:42.961Z,0.65
2023-01-25T07:09:13.600Z,0.78
2023-01-25T07:11:42.810Z,0.75
2023-01-25T07:14:11.937Z,0.50
2023-01-25T07:16:41.041Z,-0.05
2023-01-25T07:19:14.350Z,0.46
2023-01-25T07:21:44.971Z,0.43
2023-01-25T07:24:16.156Z,0.38
2023-01-25T07:26:46.012Z,0.12
2023-01-25T07:29:16.254Z,0.35
2023-01-25T07:31:45.127Z,0.72
2023-01-25T07:34:14.674Z,0.66
2023-01-25T07:36:47.792Z,0.83
2023-01-25T07:39:17.313Z,0.33
2023-01-25T07:41:46.648Z,0.34
2023-01-25T07:44:17.695Z,0.32
2023-01-25T07:46:49.095Z,0.32
2023-01-25T07:49:18.537Z,0.53
2023-01-25T07:51:49.053Z,0.93
2023-01-25T07:54:18.187Z,0.72
2023-01-25T07:56:47.299Z,0.67
2023-01-25T07:59:16.451Z,0.93
2023-01-25T08:01:45.228Z,0.92
2023-01-25T08:04:14.512Z,1.02
2023-01-25T08:06:46.557Z,1.06
2023-01-25T08:09:20.234Z,0.78
2023-01-25T08:11:50.347Z,0.53
2023-01-25T08:14:20.559Z,0.64
2023-01-25T08:16:49.374Z,0.01
2023-01-25T08:19:22.581Z,0.42
2023-01-25T08:21:51.768Z,0.73
2023-01-25T08:24:24.528Z,0.54
2023-01-25T08:26:54.633Z,0.80
2023-01-25T08:29:23.983Z,0.53
2023-01-25T08:31:52.755Z,-0.08
2023-01-25T08:34:22.071Z,0.27
2023-01-25T08:39:21.832Z,0.35
2023-01-25T08:41:51.064Z,-0.04
2023-01-25T08:44:22.570Z,0.26
2023-01-25T08:46:51.615Z,0.12
2023-01-25T08:49:20.867Z,0.50
2023-01-25T08:51:50.460Z,0.77
2023-01-25T08:54:19.576Z,0.84
2023-01-25T08:56:50.824Z,1.01
2023-01-25T08:59:19.903Z,0.56
2023-01-25T09:01:48.668Z,0.87
2023-01-25T09:04:20.089Z,1.03
2023-01-25T09:06:49.307Z,0.87
2023-01-25T09:09:18.936Z,0.66
2023-01-25T09:11:49.651Z,0.91
2023-01-25T09:14:18.848Z,0.70
2023-01-25T09:16:48.314Z,0.50
2023-01-25T09:19:18.620Z,0.41
2023-01-25T09:21:48.439Z,0.23
2023-01-25T09:24:18.984Z,0.21
2023-01-25T09:26:59.104Z,0.38
2023-01-25T09:29:30.013Z,0.58
2023-01-25T09:31:59.185Z,0.58
2023-01-25T09:34:35.619Z,0.81
2023-01-25T09:37:04.783Z,0.56
2023-01-25T09:39:33.860Z,0.44
2023-01-25T09:42:38.389Z,1.11
2023-01-25T09:45:14.819Z,1.24
2023-01-25T09:47:48.205Z,0.80
2023-01-25T09:51:05.628Z,1.09
2023-01-25T09:54:16.913Z,1.44
2023-01-25T09:57:33.218Z,1.29
2023-01-25T10:00:44.987Z,1.51
2023-01-25T10:03:56.852Z,1.31
2023-01-25T10:07:14.199Z,1.24
2023-01-25T10:10:28.739Z,1.23
2023-01-25T10:13:39.668Z,0.61
2023-01-25T10:17:08.719Z,0.90
2023-01-25T10:20:25.334Z,1.30
2023-01-25T10:23:47.655Z,1.31
2023-01-25T10:26:58.617Z,1.31
2023-01-25T10:30:22.750Z,1.47
2023-01-25T10:33:36.987Z,0.84
2023-01-25T10:36:50.049Z,0.58
2023-01-25T10:40:02.927Z,1.03
2023-01-25T10:43:17.938Z,0.75
2023-01-25T10:46:29.739Z,0.75
2023-01-25T10:49:43.714Z,0.84
2023-01-25T10:52:59.680Z,0.43
2023-01-25T10:56:22.636Z,1.07
2023-01-25T10:59:32.694Z,1.32
2023-01-25T11:02:46.663Z,1.28
2023-01-25T11:05:56.988Z,1.40
2023-01-25T11:09:31.239Z,1.70
2023-01-25T11:12:40.730Z,1.30
2023-01-25T11:15:52.189Z,1.46
2023-01-25T11:19:04.270Z,1.40
2023-01-25T11:22:24.215Z,1.44
2023-01-25T11:25:34.571Z,1.11
2023-01-25T11:28:44.610Z,1.25
2023-01-25T11:31:57.945Z,1.21
2023-01-25T11:35:14.555Z,1.46
2023-01-25T11:38:25.136Z,1.06
2023-01-25T11:41:42.013Z,0.70
2023-01-25T11:45:10.592Z,0.87
2023-01-25T11:48:32.536Z,1.04
2023-01-25T11:51:51.819Z,1.23
2023-01-25T11:55:12.778Z,0.61
2023-01-25T11:58:37.588Z,0.24
2023-01-25T12:02:02.143Z,0.97
2023-01-25T12:05:22.661Z,1.32
2023-01-25T12:08:50.612Z,1.28
2023-01-25T12:12:11.483Z,0.70
2023-01-25T12:15:47.942Z,0.58
2023-01-25T12:19:24.381Z,0.82
2023-01-25T12:22:45.308Z,0.83
2023-01-25T12:26:05.842Z,0.39
2023-01-25T12:29:24.499Z,0.78
2023-01-25T12:32:39.083Z,0.98
2023-01-25T12:35:52.198Z,1.06
2023-01-25T12:39:05.629Z,1.29
2023-01-25T12:42:18.883Z,1.38
2023-01-25T12:45:30.658Z,1.14
2023-01-25T12:48:42.756Z,1.21
2023-01-25T12:51:53.445Z,1.31
2023-01-25T12:55:03.897Z,1.47
2023-01-25T12:58:23.814Z,1.89
2023-01-25T13:01:44.858Z,1.96
2023-01-25T13:05:01.479Z,1.66
2023-01-25T13:07:36.737Z,1.85
2023-01-25T13:10:14.697Z,2.03
2023-01-25T13:12:53.986Z,1.84
2023-01-25T13:15:44.566Z,1.80
2023-01-25T13:18:39.172Z,2.09
2023-01-25T13:21:13.938Z,2.17
2023-01-25T13:23:48.087Z,1.76
2023-01-25T13:26:54.295Z,2.04
2023-01-25T13:29:47.302Z,1.86
2023-01-25T13:32:54.142Z,1.66
2023-01-25T13:35:40.341Z,1.96
2023-01-25T13:38:44.896Z,1.57
2023-01-25T13:41:17.219Z,1.76
2023-01-25T13:43:49.900Z,2.02
2023-01-25T13:46:21.423Z,1.43
2023-01-25T13:49:02.935Z,1.56
2023-01-25T13:51:37.320Z,1.77
2023-01-25T13:54:06.785Z,0.42
2023-01-25T13:56:36.691Z,1.01
2023-01-25T13:59:05.891Z,1.05
2023-01-25T14:01:36.232Z,0.87
2023-01-25T14:04:07.401Z,0.62
2023-01-25T14:06:39.624Z,0.45
2023-01-25T14:09:16.880Z,0.69
2023-01-25T14:11:49.768Z,0.96
2023-01-25T14:14:22.392Z,0.90
2023-01-25T14:17:03.137Z,0.98
2023-01-25T14:19:34.839Z,1.00
2023-01-25T14:22:23.014Z,1.26
2023-01-25T14:25:19.255Z,1.23
2023-01-25T14:27:50.316Z,1.05
2023-01-25T14:30:22.208Z,1.10
2023-01-25T14:32:52.742Z,1.15
2023-01-25T14:35:54.577Z,0.91
2023-01-25T14:38:41.730Z,0.92
2023-01-25T14:41:15.261Z,0.93
2023-01-25T14:43:47.642Z,0.91
2023-01-25T14:46:20.875Z,0.66
2023-01-25T14:48:50.332Z,0.90
2023-01-25T14:51:28.682Z,0.86
2023-01-25T14:54:00.740Z,0.62
2023-01-25T14:56:34.544Z,0.68
2023-01-25T14:59:04.964Z,0.53
2023-01-25T15:01:34.626Z,0.72
2023-01-25T15:04:04.193Z,0.39
2023-01-25T15:06:34.662Z,0.77
2023-01-25T15:09:03.819Z,0.36
2023-01-25T15:11:38.888Z,0.57
2023-01-25T15:14:18.294Z,0.49
2023-01-25T15:16:47.062Z,0.69
2023-01-25T15:19:27.798Z,0.72
2023-01-25T15:22:00.073Z,0.92
2023-01-25T15:24:29.422Z,0.80
2023-01-25T15:26:58.464Z,0.83
2023-01-25T15:29:27.863Z,0.43
2023-01-25T15:31:57.254Z,-0.13
2023-01-25T15:34:30.451Z,0.69
2023-01-25T15:37:00.898Z,0.86
2023-01-25T15:39:30.150Z,0.82
2023-01-25T15:41:59.414Z,0.74
2023-01-25T15:44:28.415Z,0.83
2023-01-25T15:46:57.374Z,0.99
2023-01-25T15:49:28.272Z,0.85
2023-01-25T15:51:58.122Z,0.72
2023-01-25T15:54:28.884Z,0.87
2023-01-25T15:56:59.285Z,0.83
2023-01-25T15:59:28.398Z,0.64
2023-01-25T16:01:57.208Z,0.77
2023-01-25T16:04:26.488Z,0.55
2023-01-25T16:06:58.843Z,0.74
2023-01-25T16:09:33.338Z,0.87
2023-01-25T16:12:03.383Z,0.99
2023-01-25T16:14:32.278Z,0.89
2023-01-25T16:17:03.149Z,0.89
2023-01-25T16:19:32.305Z,1.00
2023-01-25T16:22:01.510Z,0.93
2023-01-25T16:24:32.064Z,1.10
2023-01-25T16:27:02.629Z,1.07
2023-01-25T16:29:31.809Z,1.22
2023-01-25T16:32:01.092Z,1.31
2023-01-25T16:34:29.911Z,1.36
2023-01-25T16:36:59.979Z,1.30
2023-01-25T16:39:29.283Z,1.40
2023-01-25T16:42:00.233Z,1.48
2023-01-25T16:44:29.335Z,1.17
2023-01-25T16:46:58.554Z,1.25
2023-01-25T16:49:30.631Z,1.20
2023-01-25T16:52:00.222Z,1.06
2023-01-25T16:54:31.748Z,1.06
2023-01-25T16:57:15.032Z,0.73
2023-01-25T16:59:48.605Z,0.33
2023-01-25T17:02:17.656Z,0.53
2023-01-25T17:04:46.345Z,1.01
2023-01-25T17:07:15.527Z,0.98
2023-01-25T17:09:44.645Z,0.95
2023-01-25T17:12:15.235Z,1.12
2023-01-25T17:14:44.354Z,1.06
2023-01-25T17:17:13.601Z,1.10
2023-01-25T17:19:42.663Z,1.10
2023-01-25T17:22:11.891Z,1.12
2023-01-25T17:24:41.468Z,1.04
2023-01-25T17:27:10.652Z,1.06
2023-01-25T17:29:41.289Z,1.19
2023-01-25T17:32:10.656Z,1.07
2023-01-25T17:34:39.357Z,1.11
2023-01-25T17:37:08.421Z,1.02
2023-01-25T17:39:37.499Z,1.24
2023-01-25T17:42:26.222Z,1.13
2023-01-25T17:44:56.897Z,1.30
2023-01-25T17:47:26.013Z,1.35
2023-01-25T17:49:54.688Z,1.28
2023-01-25T17:52:23.771Z,0.91
2023-01-25T17:54:52.857Z,1.22
2023-01-25T17:57:24.188Z,1.22
2023-01-25T17:59:53.252Z,1.68
2023-01-25T18:02:23.788Z,1.44
2023-01-25T18:04:52.229Z,1.26
2023-01-25T18:07:21.462Z,1.07
2023-01-25T18:09:50.514Z,1.16
2023-01-25T18:12:20.730Z,1.35
2023-01-25T18:14:50.127Z,1.13
2023-01-25T18:17:19.336Z,1.21
2023-01-25T18:19:49.716Z,1.41
2023-01-25T18:22:19.002Z,1.47
2023-01-25T18:24:48.626Z,1.37
2023-01-25T18:27:20.639Z,1.11
2023-01-25T18:29:55.371Z,1.19
2023-01-25T18:32:24.545Z,1.46
2023-01-25T18:34:54.663Z,1.04
2023-01-25T18:37:25.848Z,1.20
2023-01-25T18:39:56.536Z,0.99
2023-01-25T18:42:27.390Z,0.98
2023-01-25T18:44:56.595Z,0.86
2023-01-25T18:47:28.136Z,1.31
2023-01-25T18:49:58.609Z,2.11
2023-01-25T18:52:27.633Z,2.39
2023-01-25T18:54:56.951Z,1.02
2023-01-25T18:57:26.165Z,1.10
2023-01-25T18:59:55.601Z,0.46
2023-01-25T19:02:24.962Z,1.08
2023-01-25T19:04:53.853Z,1.11
2023-01-25T19:07:24.430Z,1.01
2023-01-25T19:09:53.525Z,1.25
2023-01-25T19:12:22.624Z,1.28
2023-01-25T19:14:51.975Z,1.37
2023-01-25T19:17:21.120Z,1.40
2023-01-25T19:19:49.858Z,1.42
2023-01-25T19:22:18.992Z,1.19
2023-01-25T19:24:49.683Z,1.23
2023-01-25T19:27:18.673Z,1.37
2023-01-25T19:29:47.724Z,1.40
2023-01-25T19:32:16.822Z,0.97
2023-01-25T19:34:45.608Z,1.27
2023-01-25T19:37:14.635Z,0.99
2023-01-25T19:39:43.729Z,0.53
2023-01-25T19:42:18.530Z,0.82
2023-01-25T19:44:48.616Z,0.94
2023-01-25T19:47:17.754Z,1.10
2023-01-25T19:49:46.500Z,0.81
2023-01-25T19:52:15.661Z,1.50
2023-01-25T19:54:44.791Z,1.71
2023-01-25T19:57:18.495Z,2.11
2023-01-25T19:59:47.975Z,1.56
2023-01-25T20:02:16.968Z,0.95
2023-01-25T20:04:45.677Z,0.77
2023-01-25T20:07:14.963Z,1.53
2023-01-25T20:09:44.060Z,1.67
2023-01-25T20:12:17.715Z,1.75
2023-01-25T20:14:46.876Z,0.88
2023-01-25T20:17:15.886Z,1.25
2023-01-25T20:19:44.562Z,0.31
2023-01-25T20:22:13.926Z,0.69
2023-01-25T20:24:43.007Z,-0.01
2023-01-25T20:27:12.059Z,0.26
2023-01-25T20:29:42.657Z,-0.13
2023-01-25T20:32:26.649Z,0.12
2023-01-25T20:35:03.626Z,-0.18
2023-01-25T20:37:33.140Z,0.16
2023-01-25T20:40:02.244Z,0.45
2023-01-25T20:42:31.222Z,0.48
2023-01-25T20:45:01.665Z,-0.06
2023-01-25T20:47:30.753Z,0.39
2023-01-25T20:49:59.890Z,0.76
2023-01-25T20:52:29.281Z,0.07
2023-01-25T20:54:58.398Z,0.68
2023-01-25T20:57:29.899Z,0.39
2023-01-25T20:59:59.019Z,0.56
2023-01-25T21:02:29.675Z,0.98
2023-01-25T21:04:58.451Z,0.86
2023-01-25T21:07:27.501Z,1.19
2023-01-25T21:09:56.742Z,1.26
2023-01-25T21:12:25.754Z,1.01
2023-01-25T21:14:54.966Z,1.04
2023-01-25T21:17:24.148Z,1.09
2023-01-25T21:19:54.494Z,1.19
2023-01-25T21:22:23.805Z,1.09
2023-01-25T21:24:53.089Z,1.21
2023-01-25T21:27:23.047Z,1.30
2023-01-25T21:29:52.152Z,1.26
2023-01-25T21:32:21.411Z,1.49
2023-01-25T21:34:50.128Z,1.41
2023-01-25T21:37:22.541Z,1.47
2023-01-25T21:39:51.662Z,1.49
2023-01-25T21:42:20.882Z,1.52
2023-01-25T21:45:07.398Z,1.19
2023-01-25T21:47:37.027Z,0.91
2023-01-25T21:50:23.058Z,1.11
2023-01-25T21:52:53.211Z,0.64
2023-01-25T21:55:22.720Z,0.68
2023-01-25T21:57:52.517Z,0.24
2023-01-25T22:00:22.357Z,0.65
2023-01-25T22:02:52.424Z,0.14
2023-01-25T22:05:21.478Z,0.47
2023-01-25T22:07:50.356Z,0.56
2023-01-25T22:10:21.102Z,0.43
2023-01-25T22:12:51.759Z,0.65
2023-01-25T22:15:20.973Z,0.80
2023-01-25T22:17:50.219Z,0.97
2023-01-25T22:20:19.513Z,0.93
2023-01-25T22:22:48.986Z,0.92
2023-01-25T22:25:18.401Z,0.41
2023-01-25T22:27:53.924Z,0.45
2023-01-25T22:30:23.033Z,-0.34
2023-01-25T22:32:52.249Z,-0.02
2023-01-25T22:35:21.289Z,-0.11
2023-01-25T22:37:49.972Z,0.26
2023-01-25T22:40:19.219Z,0.46
2023-01-25T22:42:49.787Z,0.93
2023-01-25T22:45:18.773Z,0.57
2023-01-25T22:47:49.239Z,0.70
2023-01-25T22:50:18.666Z,1.11
2023-01-25T22:52:49.036Z,1.16
2023-01-25T22:55:18.114Z,0.96
2023-01-25T22:57:47.227Z,0.76
2023-01-25T23:00:19.198Z,0.86
2023-01-25T23:02:48.537Z,1.27
2023-01-25T23:05:17.657Z,1.15
2023-01-25T23:07:46.438Z,1.36
2023-01-25T23:10:17.964Z,1.44
2023-01-25T23:12:47.006Z,1.54
2023-01-25T23:15:17.503Z,1.37
2023-01-25T23:18:03.851Z,1.59
2023-01-25T23:20:33.133Z,1.31
2023-01-25T23:23:02.295Z,1.66
2023-01-25T23:25:31.335Z,1.30
2023-01-25T23:28:00.454Z,1.55
2023-01-25T23:30:31.161Z,1.69
2023-01-25T23:33:00.156Z,0.69
2023-01-25T23:35:29.350Z,0.77
2023-01-25T23:37:58.352Z,0.13
2023-01-25T23:40:27.142Z,0.65
2023-01-25T23:42:57.794Z,0.94
2023-01-25T23:45:27.068Z,1.24
2023-01-25T23:47:57.770Z,1.61
2023-01-25T23:50:26.892Z,1.74
2023-01-25T23:52:55.531Z,1.84
2023-01-25T23:55:24.610Z,1.97
2023-01-25T23:57:55.190Z,1.73
